createdAt,value
2022-12-04T00:01:56.146Z,5.43
2022-12-04T00:04:42.539Z,5.47
2022-12-04T00:07:29.027Z,5.13
2022-12-04T00:10:15.272Z,6.50
2022-12-04T00:13:01.870Z,5.33
2022-12-04T00:15:49.510Z,5.40
2022-12-04T00:18:36.138Z,4.43
2022-12-04T00:21:23.913Z,5.67
2022-12-04T00:24:10.464Z,5.13
2022-12-04T00:26:56.811Z,4.37
2022-12-04T00:29:43.228Z,4.23
2022-12-04T00:32:31.134Z,4.87
2022-12-04T00:35:17.537Z,6.23
2022-12-04T00:38:03.768Z,5.27
2022-12-04T00:40:50.912Z,4.77
2022-12-04T00:43:37.358Z,5.90
2022-12-04T00:46:24.090Z,6.17
2022-12-04T00:49:11.849Z,5.40
2022-12-04T00:51:58.216Z,5.77
2022-12-04T00:54:44.370Z,5.23
2022-12-04T00:57:30.824Z,5.10
2022-12-04T01:00:18.537Z,4.83
2022-12-04T01:03:05.047Z,6.13
2022-12-04T01:05:53.100Z,5.10
2022-12-04T01:11:27.394Z,4.93
2022-12-04T01:14:13.627Z,5.27
2022-12-04T01:17:00.023Z,5.23
2022-12-04T01:19:46.444Z,4.53
2022-12-04T01:22:34.622Z,6.33
2022-12-04T01:25:21.207Z,5.37
2022-12-04T01:28:07.717Z,4.53
2022-12-04T01:30:58.768Z,5.27
2022-12-04T01:33:45.026Z,4.50
2022-12-04T01:36:31.318Z,5.10
2022-12-04T01:39:18.904Z,4.50
2022-12-04T01:42:05.773Z,3.87
2022-12-04T01:45:06.679Z,4.30
2022-12-04T01:47:54.856Z,4.87
2022-12-04T01:50:41.958Z,5.70
2022-12-04T01:53:28.379Z,4.97
2022-12-04T01:56:17.115Z,6.47
2022-12-04T01:59:04.314Z,4.10
2022-12-04T02:01:53.732Z,5.00
2022-12-04T02:04:41.146Z,4.13
2022-12-04T02:07:27.825Z,4.37
2022-12-04T02:10:14.928Z,4.20
2022-12-04T02:13:05.141Z,4.13
2022-12-04T02:15:57.601Z,3.37
2022-12-04T02:18:47.704Z,6.23
2022-12-04T02:21:35.700Z,4.90
2022-12-04T02:24:32.661Z,4.70
2022-12-04T02:27:22.463Z,5.20
2022-12-04T02:30:12.965Z,5.10
2022-12-04T02:33:02.674Z,4.20
2022-12-04T02:35:53.347Z,5.03
2022-12-04T02:38:41.848Z,4.93
2022-12-04T02:41:31.243Z,4.73
2022-12-04T02:44:19.935Z,4.93
2022-12-04T02:47:11.387Z,5.03
2022-12-04T02:49:59.716Z,5.50
2022-12-04T02:52:48.613Z,4.77
2022-12-04T02:55:36.897Z,3.47
2022-12-04T02:58:26.744Z,4.33
2022-12-04T03:01:23.880Z,5.17
2022-12-04T03:04:15.664Z,5.23
2022-12-04T03:07:04.194Z,4.27
2022-12-04T03:09:53.607Z,4.60
2022-12-04T03:12:42.680Z,5.33
2022-12-04T03:15:31.302Z,5.77
2022-12-04T03:18:19.654Z,5.47
2022-12-04T03:21:09.333Z,4.53
2022-12-04T03:23:58.158Z,5.10
2022-12-04T03:26:46.369Z,4.90
2022-12-04T03:29:35.375Z,4.47
2022-12-04T03:32:25.233Z,4.97
2022-12-04T03:35:15.262Z,4.80
2022-12-04T03:38:05.047Z,3.23
2022-12-04T03:40:55.487Z,4.60
2022-12-04T03:43:47.818Z,5.10
2022-12-04T03:46:36.678Z,4.50
2022-12-04T03:49:26.124Z,3.67
2022-12-04T03:52:14.553Z,4.73
2022-12-04T03:55:05.529Z,5.40
2022-12-04T03:57:52.724Z,4.67
2022-12-04T04:00:40.932Z,4.83
2022-12-04T04:03:29.518Z,5.10
2022-12-04T04:06:17.549Z,5.00
2022-12-04T04:09:11.282Z,4.63
2022-12-04T04:12:03.612Z,4.73
2022-12-04T04:15:09.127Z,4.17
2022-12-04T04:18:14.890Z,5.20
2022-12-04T04:21:19.421Z,5.20
2022-12-04T04:24:16.171Z,4.27
2022-12-04T04:27:04.413Z,4.87
2022-12-04T04:29:52.874Z,5.30
2022-12-04T04:32:40.983Z,4.80
2022-12-04T04:35:30.853Z,4.60
2022-12-04T04:38:20.413Z,5.47
2022-12-04T04:41:11.399Z,5.03
2022-12-04T04:44:00.963Z,3.43
2022-12-04T04:46:48.414Z,6.40
2022-12-04T04:49:36.039Z,5.10
2022-12-04T04:52:23.557Z,4.53
2022-12-04T04:55:10.515Z,6.10
2022-12-04T04:58:06.724Z,5.50
2022-12-04T05:00:58.194Z,5.47
2022-12-04T05:03:44.434Z,4.97
2022-12-04T05:06:30.856Z,7.60
2022-12-04T05:09:17.296Z,4.80
2022-12-04T05:12:03.664Z,3.83
2022-12-04T05:14:50.032Z,5.83
2022-12-04T05:17:37.701Z,4.93
2022-12-04T05:20:23.015Z,5.27
2022-12-04T05:23:09.455Z,5.30
2022-12-04T05:25:59.993Z,5.93
2022-12-04T05:28:46.203Z,5.03
2022-12-04T05:31:32.914Z,4.43
2022-12-04T05:34:20.522Z,5.73
2022-12-04T05:37:07.233Z,4.50
2022-12-04T05:39:54.182Z,4.73
2022-12-04T05:42:41.036Z,5.07
2022-12-04T05:45:27.403Z,7.20
2022-12-04T05:48:13.932Z,5.53
2022-12-04T05:51:01.638Z,5.97
2022-12-04T05:53:47.869Z,5.77
2022-12-04T05:56:34.084Z,3.80
2022-12-04T05:59:20.787Z,5.87
2022-12-04T06:02:07.562Z,6.47
2022-12-04T06:04:54.200Z,4.77
2022-12-04T06:07:42.384Z,5.20
2022-12-04T06:10:29.943Z,5.27
2022-12-04T06:13:16.198Z,5.50
2022-12-04T06:16:02.679Z,9.57
2022-12-04T06:18:50.246Z,6.43
2022-12-04T06:21:37.197Z,5.33
2022-12-04T06:24:25.484Z,4.60
2022-12-04T06:27:27.327Z,5.30
2022-12-04T06:30:14.949Z,5.30
2022-12-04T06:33:01.266Z,5.20
2022-12-04T06:35:47.769Z,7.20
2022-12-04T06:38:34.288Z,6.03
2022-12-04T06:41:22.626Z,5.27
2022-12-04T06:44:09.889Z,6.60
2022-12-04T06:46:55.941Z,5.50
2022-12-04T06:49:42.355Z,4.87
2022-12-04T06:52:28.707Z,6.07
2022-12-04T06:55:14.776Z,5.47
2022-12-04T06:58:02.394Z,3.33
2022-12-04T07:00:48.818Z,4.57
2022-12-04T07:03:35.595Z,4.30
2022-12-04T07:06:22.914Z,4.60
2022-12-04T07:09:11.297Z,4.60
2022-12-04T07:11:57.572Z,6.57
2022-12-04T07:14:44.994Z,4.60
2022-12-04T07:17:31.173Z,4.23
2022-12-04T07:20:17.742Z,6.73
2022-12-04T07:23:07.191Z,7.00
2022-12-04T07:25:53.868Z,5.00
2022-12-04T07:28:40.796Z,6.40
2022-12-04T07:31:29.707Z,4.07
2022-12-04T07:34:16.128Z,6.87
2022-12-04T07:37:02.699Z,6.97
2022-12-04T07:39:52.088Z,18.33
2022-12-04T07:42:38.803Z,8.63
2022-12-04T07:45:25.426Z,7.90
2022-12-04T07:48:15.007Z,6.07
2022-12-04T07:51:05.800Z,5.17
2022-12-04T07:53:53.454Z,12.67
2022-12-04T07:56:40.101Z,6.90
2022-12-04T07:59:26.837Z,6.73
2022-12-04T08:02:13.676Z,7.43
2022-12-04T08:05:01.508Z,7.33
2022-12-04T08:07:47.805Z,8.27
2022-12-04T08:10:34.301Z,7.13
2022-12-04T08:13:20.392Z,5.23
2022-12-04T08:16:07.682Z,7.40
2022-12-04T08:18:54.365Z,4.97
2022-12-04T08:21:42.127Z,5.37
2022-12-04T08:24:28.547Z,6.73
2022-12-04T08:27:15.257Z,6.30
2022-12-04T08:30:01.661Z,7.80
2022-12-04T08:32:49.255Z,7.13
2022-12-04T08:35:38.030Z,5.53
2022-12-04T08:38:25.606Z,8.70
2022-12-04T08:41:13.354Z,8.10
2022-12-04T08:43:59.991Z,8.43
2022-12-04T08:46:47.843Z,12.77
2022-12-04T08:49:35.373Z,6.33
2022-12-04T08:52:22.072Z,7.23
2022-12-04T08:55:11.375Z,6.63
2022-12-04T08:57:57.962Z,7.30
2022-12-04T09:00:44.903Z,7.90
2022-12-04T09:03:34.092Z,11.63
2022-12-04T09:06:22.095Z,7.67
2022-12-04T09:09:09.039Z,7.70
2022-12-04T09:11:57.774Z,8.27
2022-12-04T09:14:45.231Z,6.83
2022-12-04T09:17:32.110Z,13.80
2022-12-04T09:20:18.524Z,28.37
2022-12-04T09:23:05.898Z,36.80
2022-12-04T09:25:52.670Z,25.67
2022-12-04T09:28:41.248Z,16.53
2022-12-04T09:31:28.845Z,20.37
2022-12-04T09:34:16.442Z,13.13
2022-12-04T09:37:03.787Z,11.50
2022-12-04T09:39:50.817Z,33.20
2022-12-04T09:42:42.045Z,18.00
2022-12-04T09:45:34.608Z,14.40
2022-12-04T09:48:22.389Z,9.53
2022-12-04T09:51:19.269Z,8.10
2022-12-04T09:54:10.175Z,7.43
2022-12-04T09:57:01.204Z,8.47
2022-12-04T09:59:47.951Z,6.70
2022-12-04T10:02:38.848Z,7.40
2022-12-04T10:05:30.605Z,7.17
2022-12-04T10:08:20.495Z,18.00
2022-12-04T10:11:13.754Z,10.47
2022-12-04T10:14:13.283Z,9.40
2022-12-04T10:17:17.522Z,15.87
2022-12-04T10:20:13.103Z,12.93
2022-12-04T10:23:09.301Z,9.97
2022-12-04T10:26:01.822Z,6.43
2022-12-04T10:28:54.977Z,6.77
2022-12-04T10:31:42.928Z,7.97
2022-12-04T10:34:31.048Z,6.73
2022-12-04T10:37:19.521Z,7.60
2022-12-04T10:40:11.516Z,6.33
2022-12-04T10:43:01.290Z,7.57
2022-12-04T10:45:49.535Z,10.77
2022-12-04T10:48:38.973Z,8.03
2022-12-04T10:51:27.073Z,9.73
2022-12-04T10:54:22.392Z,7.47
2022-12-04T10:57:10.447Z,8.43
2022-12-04T10:59:59.929Z,8.03
2022-12-04T11:02:49.313Z,8.70
2022-12-04T11:05:37.192Z,7.70
2022-12-04T11:08:26.216Z,8.77
2022-12-04T11:11:16.677Z,7.43
2022-12-04T11:14:04.607Z,6.90
2022-12-04T11:17:02.163Z,8.10
2022-12-04T11:19:49.679Z,6.83
2022-12-04T11:22:38.499Z,6.30
2022-12-04T11:25:27.411Z,6.73
2022-12-04T11:28:39.921Z,6.90
2022-12-04T11:31:27.214Z,30.20
2022-12-04T11:34:19.999Z,11.07
2022-12-04T11:37:09.003Z,6.70
2022-12-04T11:39:58.336Z,5.77
2022-12-04T11:42:45.860Z,4.87
2022-12-04T11:45:34.409Z,7.73
2022-12-04T11:48:21.362Z,4.47
2022-12-04T11:51:17.556Z,3.43
2022-12-04T11:54:08.907Z,3.53
2022-12-04T11:57:02.035Z,3.20
2022-12-04T12:00:02.546Z,4.10
2022-12-04T12:03:01.384Z,5.90
2022-12-04T12:06:13.384Z,6.00
2022-12-04T12:09:05.140Z,4.37
2022-12-04T12:11:57.545Z,4.03
2022-12-04T12:14:51.977Z,5.57
2022-12-04T12:17:42.781Z,4.17
2022-12-04T12:20:35.569Z,4.63
2022-12-04T12:23:28.421Z,4.07
2022-12-04T12:26:16.542Z,4.20
2022-12-04T12:29:13.351Z,5.57
2022-12-04T12:32:07.031Z,5.37
2022-12-04T12:34:54.782Z,3.70
2022-12-04T12:37:49.201Z,3.43
2022-12-04T12:40:38.394Z,3.57
2022-12-04T12:43:30.337Z,4.43
2022-12-04T12:46:19.744Z,4.10
2022-12-04T12:49:11.480Z,4.23
2022-12-04T12:52:00.198Z,4.90
2022-12-04T12:54:54.438Z,4.23
2022-12-04T12:57:42.622Z,6.00
2022-12-04T13:00:32.065Z,5.73
2022-12-04T13:03:26.758Z,4.70
2022-12-04T13:06:16.663Z,5.07
2022-12-04T13:09:09.232Z,6.93
2022-12-04T13:12:00.979Z,4.90
2022-12-04T13:14:49.289Z,6.67
2022-12-04T13:17:39.065Z,6.07
2022-12-04T13:20:28.703Z,7.67
2022-12-04T13:23:23.489Z,10.77
2022-12-04T13:26:15.651Z,6.20
2022-12-04T13:29:11.148Z,10.20
2022-12-04T13:32:02.764Z,12.20
2022-12-04T13:34:56.945Z,9.93
2022-12-04T13:37:50.376Z,12.80
2022-12-04T13:40:42.240Z,14.80
2022-12-04T13:43:36.606Z,9.27
2022-12-04T13:46:34.270Z,7.87
2022-12-04T13:49:30.267Z,9.20
2022-12-04T13:52:24.358Z,5.80
2022-12-04T13:55:26.713Z,5.57
2022-12-04T13:58:28.950Z,11.83
2022-12-04T14:01:26.325Z,9.97
2022-12-04T14:04:26.383Z,8.33
2022-12-04T14:07:25.497Z,8.67
2022-12-04T14:10:28.057Z,9.60
2022-12-04T14:13:21.049Z,6.93
2022-12-04T14:16:10.160Z,6.97
2022-12-04T14:18:58.203Z,8.37
2022-12-04T14:21:49.462Z,19.43
2022-12-04T14:24:37.341Z,11.50
2022-12-04T14:27:33.791Z,12.57
2022-12-04T14:30:22.133Z,8.70
2022-12-04T14:33:10.409Z,9.57
2022-12-04T14:36:00.080Z,7.50
2022-12-04T14:38:49.045Z,4.63
2022-12-04T14:41:35.422Z,6.67
2022-12-04T14:44:26.638Z,6.33
2022-12-04T14:47:17.434Z,9.23
2022-12-04T14:50:15.884Z,6.20
2022-12-04T14:53:07.272Z,9.87
2022-12-04T14:56:06.061Z,11.03
2022-12-04T14:58:54.395Z,16.43
2022-12-04T15:01:40.619Z,10.47
2022-12-04T15:04:29.019Z,12.30
2022-12-04T15:07:22.561Z,12.20
2022-12-04T15:10:35.963Z,12.80
2022-12-04T15:13:33.134Z,21.40
2022-12-04T15:16:20.284Z,11.70
2022-12-04T15:19:06.795Z,6.27
2022-12-04T15:21:53.139Z,17.73
2022-12-04T15:24:39.598Z,9.47
2022-12-04T15:27:31.982Z,7.47
2022-12-04T15:30:22.706Z,5.40
2022-12-04T15:33:10.644Z,5.77
2022-12-04T15:35:58.974Z,5.57
2022-12-04T15:38:45.580Z,6.40
2022-12-04T15:41:32.963Z,5.63
2022-12-04T15:44:26.035Z,6.40
2022-12-04T15:47:18.456Z,4.33
2022-12-04T15:50:09.215Z,5.27
2022-12-04T15:52:58.550Z,5.53
2022-12-04T15:55:49.394Z,5.27
2022-12-04T15:58:37.622Z,13.80
2022-12-04T16:01:24.411Z,5.37
2022-12-04T16:04:22.510Z,7.23
2022-12-04T16:07:20.091Z,10.50
2022-12-04T16:10:21.251Z,5.63
2022-12-04T16:13:07.822Z,12.60
2022-12-04T16:15:53.776Z,5.73
2022-12-04T16:18:40.585Z,13.97
2022-12-04T16:21:30.446Z,10.87
2022-12-04T16:24:16.979Z,6.57
2022-12-04T16:27:04.774Z,4.93
2022-12-04T16:29:51.707Z,9.97
2022-12-04T16:35:24.681Z,8.40
2022-12-04T16:38:15.923Z,6.07
2022-12-04T16:41:02.912Z,10.67
2022-12-04T16:43:53.447Z,9.23
2022-12-04T16:46:39.494Z,5.30
2022-12-04T16:49:25.833Z,3.93
2022-12-04T16:52:12.873Z,8.37
2022-12-04T16:55:04.622Z,6.60
2022-12-04T16:57:51.774Z,6.60
2022-12-04T17:00:39.215Z,3.80
2022-12-04T17:03:27.592Z,6.10
2022-12-04T17:06:13.891Z,3.90
2022-12-04T17:09:00.173Z,4.13
2022-12-04T17:11:47.887Z,5.00
2022-12-04T17:14:34.185Z,4.80
2022-12-04T17:17:20.217Z,4.20
2022-12-04T17:20:07.376Z,4.87
2022-12-04T17:22:53.771Z,15.63
2022-12-04T17:25:40.289Z,7.20
2022-12-04T17:28:29.224Z,6.30
2022-12-04T17:31:16.701Z,4.63
2022-12-04T17:34:03.471Z,5.73
2022-12-04T17:36:50.059Z,5.77
2022-12-04T17:39:36.778Z,6.30
2022-12-04T17:42:23.155Z,7.80
2022-12-04T17:45:12.112Z,6.40
2022-12-04T17:47:58.517Z,7.93
2022-12-04T17:50:44.747Z,5.97
2022-12-04T17:53:30.834Z,5.90
2022-12-04T17:56:18.478Z,4.80
2022-12-04T17:59:04.870Z,6.97
2022-12-04T18:01:52.458Z,7.23
2022-12-04T18:04:38.603Z,11.33
2022-12-04T18:07:24.942Z,12.77
2022-12-04T18:10:11.016Z,9.00
2022-12-04T18:12:57.244Z,7.20
2022-12-04T18:15:43.485Z,10.30
2022-12-04T18:18:31.476Z,14.73
2022-12-04T18:21:17.636Z,9.50
2022-12-04T18:24:04.891Z,7.37
2022-12-04T18:26:51.519Z,12.20
2022-12-04T18:29:38.003Z,8.67
2022-12-04T18:32:24.452Z,5.57
2022-12-04T18:35:12.087Z,7.93
2022-12-04T18:37:58.588Z,7.40
2022-12-04T18:40:44.894Z,5.23
2022-12-04T18:43:33.719Z,7.53
2022-12-04T18:46:20.091Z,8.63
2022-12-04T18:49:06.925Z,6.63
2022-12-04T18:51:54.669Z,4.70
2022-12-04T18:54:41.183Z,5.70
2022-12-04T18:57:27.539Z,6.57
2022-12-04T19:00:14.578Z,6.83
2022-12-04T19:03:00.783Z,4.73
2022-12-04T19:05:50.538Z,5.80
2022-12-04T19:08:42.846Z,7.03
2022-12-04T19:11:30.126Z,6.37
2022-12-04T19:14:23.359Z,5.93
2022-12-04T19:17:10.465Z,5.87
2022-12-04T19:19:56.918Z,3.77
2022-12-04T19:22:43.727Z,6.00
2022-12-04T19:25:31.693Z,4.70
2022-12-04T19:28:18.241Z,7.83
2022-12-04T19:31:04.765Z,5.20
2022-12-04T19:33:51.181Z,7.23
2022-12-04T19:36:37.775Z,9.07
2022-12-04T19:39:24.546Z,10.37
2022-12-04T19:42:12.340Z,8.20
2022-12-04T19:44:58.889Z,6.33
2022-12-04T19:47:45.597Z,4.70
2022-12-04T19:50:32.452Z,4.03
2022-12-04T19:53:18.768Z,3.50
2022-12-04T19:56:06.087Z,3.50
2022-12-04T19:58:53.873Z,3.47
2022-12-04T20:01:40.130Z,3.17
2022-12-04T20:04:26.752Z,5.93
2022-12-04T20:07:13.079Z,5.00
2022-12-04T20:09:59.258Z,4.30
2022-12-04T20:12:46.080Z,4.80
2022-12-04T20:15:35.649Z,4.90
2022-12-04T20:18:22.253Z,7.13
2022-12-04T20:21:11.258Z,6.47
2022-12-04T20:23:58.087Z,4.80
2022-12-04T20:26:45.365Z,6.73
2022-12-04T20:29:31.961Z,6.47
2022-12-04T20:32:20.793Z,5.90
2022-12-04T20:35:07.844Z,6.53
2022-12-04T20:37:54.314Z,5.23
2022-12-04T20:40:40.905Z,4.40
2022-12-04T20:43:27.405Z,4.90
2022-12-04T20:46:17.426Z,5.47
2022-12-04T20:49:06.388Z,4.93
2022-12-04T20:51:52.916Z,3.53
2022-12-04T20:54:41.575Z,3.47
2022-12-04T20:57:28.017Z,2.90
2022-12-04T21:00:14.952Z,3.23
2022-12-04T21:03:01.009Z,3.10
2022-12-04T21:05:50.927Z,2.37
2022-12-04T21:08:56.807Z,2.90
2022-12-04T21:11:44.135Z,2.33
2022-12-04T21:14:49.166Z,2.33
2022-12-04T21:17:35.622Z,2.93
2022-12-04T21:20:22.078Z,2.60
2022-12-04T21:23:09.751Z,3.20
2022-12-04T21:25:56.597Z,2.30
2022-12-04T21:28:43.307Z,3.73
2022-12-04T21:31:30.167Z,3.33
2022-12-04T21:34:17.941Z,3.73
2022-12-04T21:37:04.359Z,3.17
2022-12-04T21:39:51.806Z,3.17
2022-12-04T21:42:38.844Z,3.57
2022-12-04T21:45:25.435Z,4.50
2022-12-04T21:48:11.822Z,9.90
2022-12-04T21:50:58.776Z,8.33
2022-12-04T21:53:45.252Z,11.10
2022-12-04T21:56:33.331Z,7.77
2022-12-04T21:59:20.022Z,10.87
2022-12-04T22:02:06.542Z,6.93
2022-12-04T22:04:52.746Z,7.47
2022-12-04T22:07:38.954Z,9.00
2022-12-04T22:10:25.399Z,7.67
2022-12-04T22:13:13.466Z,7.60
2022-12-04T22:16:03.147Z,4.37
2022-12-04T22:18:49.778Z,5.00
2022-12-04T22:21:36.209Z,6.43
2022-12-04T22:24:22.517Z,5.53
2022-12-04T22:27:09.644Z,5.80
2022-12-04T22:29:57.551Z,6.10
2022-12-04T22:32:43.933Z,10.13
2022-12-04T22:35:30.107Z,9.37
2022-12-04T22:38:16.981Z,8.53
2022-12-04T22:41:04.067Z,7.27
2022-12-04T22:43:50.651Z,7.17
2022-12-04T22:46:38.252Z,11.00
2022-12-04T22:49:24.568Z,4.03
2022-12-04T22:52:10.957Z,6.80
2022-12-04T22:57:44.516Z,6.63
2022-12-04T23:00:31.097Z,3.80
2022-12-04T23:03:21.179Z,2.77
2022-12-04T23:06:07.347Z,2.30
2022-12-04T23:08:55.335Z,3.53
2022-12-04T23:11:42.018Z,4.97
2022-12-04T23:14:29.017Z,5.10
2022-12-04T23:17:15.719Z,6.70
2022-12-04T23:20:03.314Z,5.00
2022-12-04T23:22:54.770Z,6.43
2022-12-04T23:25:41.742Z,7.50
2022-12-04T23:28:28.112Z,6.50
2022-12-04T23:31:14.463Z,6.83
2022-12-04T23:34:01.532Z,6.27
2022-12-04T23:36:49.216Z,6.07
2022-12-04T23:39:35.178Z,7.43
2022-12-04T23:42:21.713Z,7.13
2022-12-04T23:45:08.463Z,5.07
2022-12-04T23:47:55.887Z,5.17
2022-12-04T23:50:42.036Z,4.20
2022-12-04T23:53:29.896Z,4.00
2022-12-04T23:56:17.094Z,4.17
2022-12-04T23:59:03.322Z,5.77
